Weather at Othello Community Hospital Heliport

Public forecast

Using degrees Fahrenheit for public forecast. Weather courtesy of forecast.io.

Closest aviation weather report (METAR) to Othello Community Hospital Heliport

Report is more than 6 hours old.

Closest report is Grant County International Airport, 23.7 nm (43.9 km) NNW.

2022/11/14 14:52 (retrieved 2 years ago)

KMWH 141452Z 36006KT 9SM CLR M07/M09 A3050 RMK AO2 SLP348 T10721089 53006

Closest aviation forecast (TAF) to Othello Community Hospital Heliport

Forecast is more than 12 hours old.

Closest forecast is Grant County International Airport, 23.7 nm (43.9 km) NNW.

2023/02/22 18:27 (retrieved 1 year ago)

TAF KMWH 221724Z 2218/2318 04018G27KT 3SM BLSN BKN025 OVC040 FM230100 04018G23KT P6SM OVC070 FM230800 02027G33KT P6SM OVC070